sensor_id;sensor_type;location;lat;lon;timestamp;P1;durP1;ratioP1;P2;durP2;ratioP2
19111;SDS011;9688;51.906;8.376;2024-01-15T00:02:25;25.30;;;11.53;;
19111;SDS011;9688;51.906;8.376;2024-01-15T00:05:10;24.07;;;11.90;;
19111;SDS011;9688;51.906;8.376;2024-01-15T00:07:56;25.30;;;11.70;;
19111;SDS011;9688;51.906;8.376;2024-01-15T00:10:41;21.53;;;10.87;;
19111;SDS011;9688;51.906;8.376;2024-01-15T00:13:26;20.97;;;11.03;;
19111;SDS011;9688;51.906;8.376;2024-01-15T00:16:12;22.47;;;11.17;;
19111;SDS011;9688;51.906;8.376;2024-01-15T00:18:59;23.70;;;11.27;;
19111;SDS011;9688;51.906;8.376;2024-01-15T00:21:44;20.13;;;9.47;;
19111;SDS011;9688;51.906;8.376;2024-01-15T00:24:30;19.23;;;10.80;;
19111;SDS011;9688;51.906;8.376;2024-01-15T00:27:15;18.87;;;9.60;;
19111;SDS011;9688;51.906;8.376;2024-01-15T00:30:01;19.67;;;9.93;;
19111;SDS011;9688;51.906;8.376;2024-01-15T00:32:46;17.80;;;9.67;;
19111;SDS011;9688;51.906;8.376;2024-01-15T00:35:33;19.63;;;8.90;;
19111;SDS011;9688;51.906;8.376;2024-01-15T00:38:19;12.83;;;7.67;;
19111;SDS011;9688;51.906;8.376;2024-01-15T00:41:04;15.17;;;7.27;;
19111;SDS011;9688;51.906;8.376;2024-01-15T00:43:50;14.67;;;7.30;;
19111;SDS011;9688;51.906;8.376;2024-01-15T00:46:42;16.23;;;7.77;;
19111;SDS011;9688;51.906;8.376;2024-01-15T00:49:29;16.83;;;7.73;;
19111;SDS011;9688;51.906;8.376;2024-01-15T00:52:16;15.50;;;7.60;;
19111;SDS011;9688;51.906;8.376;2024-01-15T00:55:01;14.33;;;8.27;;
19111;SDS011;9688;51.906;8.376;2024-01-15T00:57:47;14.90;;;6.23;;
19111;SDS011;9688;51.906;8.376;2024-01-15T01:00:32;13.67;;;7.10;;
19111;SDS011;9688;51.906;8.376;2024-01-15T01:03:17;17.47;;;7.00;;
19111;SDS011;9688;51.906;8.376;2024-01-15T01:06:03;14.60;;;6.53;;
19111;SDS011;9688;51.906;8.376;2024-01-15T01:08:50;13.33;;;7.83;;
19111;SDS011;9688;51.906;8.376;2024-01-15T01:11:35;15.57;;;7.43;;
19111;SDS011;9688;51.906;8.376;2024-01-15T01:14:21;14.10;;;7.67;;
19111;SDS011;9688;51.906;8.376;2024-01-15T01:17:06;12.87;;;7.03;;
19111;SDS011;9688;51.906;8.376;2024-01-15T01:19:52;10.20;;;6.63;;
19111;SDS011;9688;51.906;8.376;2024-01-15T01:22:37;10.93;;;6.80;;
19111;SDS011;9688;51.906;8.376;2024-01-15T01:25:24;11.97;;;6.43;;
19111;SDS011;9688;51.906;8.376;2024-01-15T01:28:10;13.47;;;6.97;;
19111;SDS011;9688;51.906;8.376;2024-01-15T01:30:55;11.20;;;6.50;;
19111;SDS011;9688;51.906;8.376;2024-01-15T01:33:40;20.17;;;7.90;;
19111;SDS011;9688;51.906;8.376;2024-01-15T01:36:26;17.30;;;8.30;;
19111;SDS011;9688;51.906;8.376;2024-01-15T01:39:11;14.47;;;7.77;;
19111;SDS011;9688;51.906;8.376;2024-01-15T01:41:58;15.80;;;7.63;;
19111;SDS011;9688;51.906;8.376;2024-01-15T01:44:44;15.50;;;8.17;;
19111;SDS011;9688;51.906;8.376;2024-01-15T01:47:29;15.77;;;7.87;;
19111;SDS011;9688;51.906;8.376;2024-01-15T01:50:15;16.63;;;8.23;;
19111;SDS011;9688;51.906;8.376;2024-01-15T01:53:01;19.70;;;8.07;;
19111;SDS011;9688;51.906;8.376;2024-01-15T01:55:48;14.37;;;7.90;;
19111;SDS011;9688;51.906;8.376;2024-01-15T01:58:37;17.37;;;7.87;;
19111;SDS011;9688;51.906;8.376;2024-01-15T02:01:23;19.17;;;7.33;;
19111;SDS011;9688;51.906;8.376;2024-01-15T02:04:09;16.30;;;7.83;;
19111;SDS011;9688;51.906;8.376;2024-01-15T02:06:55;18.83;;;7.80;;
19111;SDS011;9688;51.906;8.376;2024-01-15T02:09:41;15.07;;;7.20;;
19111;SDS011;9688;51.906;8.376;2024-01-15T02:12:26;13.83;;;7.67;;
19111;SDS011;9688;51.906;8.376;2024-01-15T02:15:13;18.40;;;7.50;;
19111;SDS011;9688;51.906;8.376;2024-01-15T02:17:59;14.70;;;7.33;;
19111;SDS011;9688;51.906;8.376;2024-01-15T02:20:46;14.97;;;7.20;;
19111;SDS011;9688;51.906;8.376;2024-01-15T02:23:33;17.40;;;7.47;;
19111;SDS011;9688;51.906;8.376;2024-01-15T02:26:19;15.37;;;7.83;;
19111;SDS011;9688;51.906;8.376;2024-01-15T02:29:04;17.93;;;7.50;;
19111;SDS011;9688;51.906;8.376;2024-01-15T02:31:52;16.93;;;7.20;;
19111;SDS011;9688;51.906;8.376;2024-01-15T02:34:37;20.73;;;7.70;;
19111;SDS011;9688;51.906;8.376;2024-01-15T02:37:22;18.43;;;7.50;;
19111;SDS011;9688;51.906;8.376;2024-01-15T02:40:10;20.80;;;8.07;;
19111;SDS011;9688;51.906;8.376;2024-01-15T02:42:56;15.23;;;7.40;;
19111;SDS011;9688;51.906;8.376;2024-01-15T02:45:41;21.67;;;7.87;;
19111;SDS011;9688;51.906;8.376;2024-01-15T02:48:27;16.83;;;7.57;;
19111;SDS011;9688;51.906;8.376;2024-01-15T02:51:12;17.10;;;7.67;;
19111;SDS011;9688;51.906;8.376;2024-01-15T02:53:57;21.30;;;7.30;;
19111;SDS011;9688;51.906;8.376;2024-01-15T02:56:44;15.00;;;7.37;;
19111;SDS011;9688;51.906;8.376;2024-01-15T02:59:30;17.27;;;7.80;;
19111;SDS011;9688;51.906;8.376;2024-01-15T03:02:15;18.00;;;7.90;;
19111;SDS011;9688;51.906;8.376;2024-01-15T03:05:01;22.83;;;8.13;;
19111;SDS011;9688;51.906;8.376;2024-01-15T03:07:46;22.50;;;8.93;;
19111;SDS011;9688;51.906;8.376;2024-01-15T03:10:31;15.57;;;7.63;;
19111;SDS011;9688;51.906;8.376;2024-01-15T03:13:18;22.53;;;7.67;;
19111;SDS011;9688;51.906;8.376;2024-01-15T03:16:04;22.07;;;7.70;;
19111;SDS011;9688;51.906;8.376;2024-01-15T03:18:50;16.23;;;7.43;;
19111;SDS011;9688;51.906;8.376;2024-01-15T03:21:36;18.23;;;7.80;;
19111;SDS011;9688;51.906;8.376;2024-01-15T03:24:21;13.70;;;6.90;;
19111;SDS011;9688;51.906;8.376;2024-01-15T03:27:07;16.30;;;7.47;;
19111;SDS011;9688;51.906;8.376;2024-01-15T03:29:54;16.90;;;7.47;;
19111;SDS011;9688;51.906;8.376;2024-01-15T03:32:39;23.90;;;7.97;;
19111;SDS011;9688;51.906;8.376;2024-01-15T03:35:24;23.47;;;7.50;;
19111;SDS011;9688;51.906;8.376;2024-01-15T03:38:12;16.60;;;7.70;;
19111;SDS011;9688;51.906;8.376;2024-01-15T03:40:58;19.37;;;7.37;;
19111;SDS011;9688;51.906;8.376;2024-01-15T03:43:43;15.50;;;7.27;;
19111;SDS011;9688;51.906;8.376;2024-01-15T03:46:30;20.23;;;7.43;;
19111;SDS011;9688;51.906;8.376;2024-01-15T03:49:15;14.97;;;7.23;;
19111;SDS011;9688;51.906;8.376;2024-01-15T03:52:01;19.63;;;7.13;;
19111;SDS011;9688;51.906;8.376;2024-01-15T03:54:46;17.43;;;7.33;;
19111;SDS011;9688;51.906;8.376;2024-01-15T03:57:31;24.13;;;7.70;;
19111;SDS011;9688;51.906;8.376;2024-01-15T04:00:16;17.50;;;7.00;;
19111;SDS011;9688;51.906;8.376;2024-01-15T04:03:04;17.77;;;7.93;;
19111;SDS011;9688;51.906;8.376;2024-01-15T04:05:49;19.67;;;7.70;;
19111;SDS011;9688;51.906;8.376;2024-01-15T04:08:35;15.00;;;7.60;;
19111;SDS011;9688;51.906;8.376;2024-01-15T04:11:20;23.53;;;7.20;;
19111;SDS011;9688;51.906;8.376;2024-01-15T04:14:06;19.37;;;7.37;;
19111;SDS011;9688;51.906;8.376;2024-01-15T04:16:51;15.77;;;7.33;;
19111;SDS011;9688;51.906;8.376;2024-01-15T04:19:38;17.47;;;6.63;;
19111;SDS011;9688;51.906;8.376;2024-01-15T04:22:27;17.10;;;7.50;;
19111;SDS011;9688;51.906;8.376;2024-01-15T04:25:13;14.87;;;6.33;;
19111;SDS011;9688;51.906;8.376;2024-01-15T04:27:58;17.87;;;6.57;;
19111;SDS011;9688;51.906;8.376;2024-01-15T04:30:43;13.00;;;6.00;;
19111;SDS011;9688;51.906;8.376;2024-01-15T04:33:29;10.60;;;6.63;;
19111;SDS011;9688;51.906;8.376;2024-01-15T04:36:15;18.63;;;6.10;;
19111;SDS011;9688;51.906;8.376;2024-01-15T04:39:01;13.97;;;6.13;;
19111;SDS011;9688;51.906;8.376;2024-01-15T04:41:47;15.37;;;6.10;;
19111;SDS011;9688;51.906;8.376;2024-01-15T04:44:32;11.80;;;6.53;;
19111;SDS011;9688;51.906;8.376;2024-01-15T04:47:18;14.70;;;6.27;;
19111;SDS011;9688;51.906;8.376;2024-01-15T04:50:03;18.03;;;7.73;;
19111;SDS011;9688;51.906;8.376;2024-01-15T04:52:50;17.97;;;7.17;;
19111;SDS011;9688;51.906;8.376;2024-01-15T04:55:36;15.07;;;6.83;;
19111;SDS011;9688;51.906;8.376;2024-01-15T04:58:21;21.47;;;6.67;;
19111;SDS011;9688;51.906;8.376;2024-01-15T05:01:09;18.50;;;7.53;;
19111;SDS011;9688;51.906;8.376;2024-01-15T05:03:54;13.73;;;6.43;;
19111;SDS011;9688;51.906;8.376;2024-01-15T05:06:40;18.57;;;6.87;;
19111;SDS011;9688;51.906;8.376;2024-01-15T05:09:27;18.80;;;6.80;;
19111;SDS011;9688;51.906;8.376;2024-01-15T05:12:12;14.17;;;6.23;;
19111;SDS011;9688;51.906;8.376;2024-01-15T05:14:58;14.17;;;7.20;;
19111;SDS011;9688;51.906;8.376;2024-01-15T05:17:43;11.40;;;6.37;;
19111;SDS011;9688;51.906;8.376;2024-01-15T05:20:29;17.00;;;6.30;;
19111;SDS011;9688;51.906;8.376;2024-01-15T05:23:15;14.13;;;6.60;;
19111;SDS011;9688;51.906;8.376;2024-01-15T05:26:01;13.20;;;6.80;;
19111;SDS011;9688;51.906;8.376;2024-01-15T05:28:47;15.03;;;6.30;;
19111;SDS011;9688;51.906;8.376;2024-01-15T05:31:33;14.57;;;6.50;;
19111;SDS011;9688;51.906;8.376;2024-01-15T05:34:20;20.57;;;6.67;;
19111;SDS011;9688;51.906;8.376;2024-01-15T05:37:06;18.80;;;6.80;;
19111;SDS011;9688;51.906;8.376;2024-01-15T05:39:51;17.67;;;7.20;;
19111;SDS011;9688;51.906;8.376;2024-01-15T05:42:38;15.23;;;6.70;;
19111;SDS011;9688;51.906;8.376;2024-01-15T05:45:23;14.17;;;6.70;;
19111;SDS011;9688;51.906;8.376;2024-01-15T05:48:10;13.63;;;6.67;;
19111;SDS011;9688;51.906;8.376;2024-01-15T05:50:56;16.70;;;7.17;;
19111;SDS011;9688;51.906;8.376;2024-01-15T05:53:41;16.43;;;7.53;;
19111;SDS011;9688;51.906;8.376;2024-01-15T05:56:28;17.63;;;7.10;;
19111;SDS011;9688;51.906;8.376;2024-01-15T05:59:15;15.73;;;7.23;;
19111;SDS011;9688;51.906;8.376;2024-01-15T06:02:00;20.73;;;7.83;;
19111;SDS011;9688;51.906;8.376;2024-01-15T06:04:46;19.17;;;8.50;;
19111;SDS011;9688;51.906;8.376;2024-01-15T06:07:31;14.13;;;7.47;;
19111;SDS011;9688;51.906;8.376;2024-01-15T06:10:17;18.03;;;8.53;;
19111;SDS011;9688;51.906;8.376;2024-01-15T06:13:03;19.50;;;8.43;;
19111;SDS011;9688;51.906;8.376;2024-01-15T06:15:51;18.67;;;8.00;;
19111;SDS011;9688;51.906;8.376;2024-01-15T06:18:36;21.23;;;8.07;;
19111;SDS011;9688;51.906;8.376;2024-01-15T06:21:22;17.60;;;7.73;;
19111;SDS011;9688;51.906;8.376;2024-01-15T06:24:08;18.10;;;7.97;;
19111;SDS011;9688;51.906;8.376;2024-01-15T06:26:54;14.33;;;7.77;;
19111;SDS011;9688;51.906;8.376;2024-01-15T06:29:44;19.70;;;7.90;;
19111;SDS011;9688;51.906;8.376;2024-01-15T06:32:31;15.47;;;7.30;;
19111;SDS011;9688;51.906;8.376;2024-01-15T06:35:17;19.23;;;7.57;;
19111;SDS011;9688;51.906;8.376;2024-01-15T06:38:02;21.23;;;7.57;;
19111;SDS011;9688;51.906;8.376;2024-01-15T06:40:47;17.87;;;7.50;;
19111;SDS011;9688;51.906;8.376;2024-01-15T06:43:33;16.70;;;6.80;;
19111;SDS011;9688;51.906;8.376;2024-01-15T06:46:19;17.93;;;6.47;;
19111;SDS011;9688;51.906;8.376;2024-01-15T06:49:07;17.27;;;6.77;;
19111;SDS011;9688;51.906;8.376;2024-01-15T06:51:52;13.30;;;6.97;;
19111;SDS011;9688;51.906;8.376;2024-01-15T06:54:38;16.20;;;7.30;;
19111;SDS011;9688;51.906;8.376;2024-01-15T06:57:23;15.43;;;5.53;;
19111;SDS011;9688;51.906;8.376;2024-01-15T07:00:09;11.87;;;5.63;;
19111;SDS011;9688;51.906;8.376;2024-01-15T07:02:55;13.23;;;5.30;;
19111;SDS011;9688;51.906;8.376;2024-01-15T07:05:42;15.53;;;5.77;;
19111;SDS011;9688;51.906;8.376;2024-01-15T07:08:28;11.37;;;5.23;;
19111;SDS011;9688;51.906;8.376;2024-01-15T07:11:13;11.83;;;5.67;;
19111;SDS011;9688;51.906;8.376;2024-01-15T07:13:59;13.37;;;5.70;;
19111;SDS011;9688;51.906;8.376;2024-01-15T07:16:45;9.33;;;4.67;;
19111;SDS011;9688;51.906;8.376;2024-01-15T07:19:30;18.47;;;5.10;;
19111;SDS011;9688;51.906;8.376;2024-01-15T07:22:17;12.40;;;5.00;;
19111;SDS011;9688;51.906;8.376;2024-01-15T07:25:04;14.80;;;4.73;;
19111;SDS011;9688;51.906;8.376;2024-01-15T07:27:50;12.90;;;4.97;;
19111;SDS011;9688;51.906;8.376;2024-01-15T07:30:38;12.00;;;4.63;;
19111;SDS011;9688;51.906;8.376;2024-01-15T07:33:23;9.37;;;4.10;;
19111;SDS011;9688;51.906;8.376;2024-01-15T07:36:08;14.27;;;5.00;;
19111;SDS011;9688;51.906;8.376;2024-01-15T07:38:56;14.17;;;5.13;;
19111;SDS011;9688;51.906;8.376;2024-01-15T07:41:41;14.87;;;4.87;;
19111;SDS011;9688;51.906;8.376;2024-01-15T07:44:26;13.37;;;5.10;;
19111;SDS011;9688;51.906;8.376;2024-01-15T07:47:12;10.83;;;4.97;;
19111;SDS011;9688;51.906;8.376;2024-01-15T07:49:59;21.50;;;7.63;;
19111;SDS011;9688;51.906;8.376;2024-01-15T07:52:44;56.33;;;24.03;;
19111;SDS011;9688;51.906;8.376;2024-01-15T07:55:31;13.07;;;7.77;;
19111;SDS011;9688;51.906;8.376;2024-01-15T07:58:18;10.50;;;6.50;;
19111;SDS011;9688;51.906;8.376;2024-01-15T08:01:04;17.17;;;10.90;;
19111;SDS011;9688;51.906;8.376;2024-01-15T08:03:50;20.30;;;13.00;;
19111;SDS011;9688;51.906;8.376;2024-01-15T08:06:36;9.90;;;6.70;;
19111;SDS011;9688;51.906;8.376;2024-01-15T08:09:21;10.10;;;5.20;;
19111;SDS011;9688;51.906;8.376;2024-01-15T08:12:09;10.63;;;5.60;;
19111;SDS011;9688;51.906;8.376;2024-01-15T08:14:58;9.07;;;5.20;;
19111;SDS011;9688;51.906;8.376;2024-01-15T08:17:44;8.33;;;5.40;;
19111;SDS011;9688;51.906;8.376;2024-01-15T08:20:29;8.67;;;5.57;;
19111;SDS011;9688;51.906;8.376;2024-01-15T08:23:15;7.30;;;4.80;;
19111;SDS011;9688;51.906;8.376;2024-01-15T08:26:00;7.03;;;4.80;;
19111;SDS011;9688;51.906;8.376;2024-01-15T08:28:47;7.60;;;5.30;;
19111;SDS011;9688;51.906;8.376;2024-01-15T08:31:33;10.70;;;5.00;;
19111;SDS011;9688;51.906;8.376;2024-01-15T08:34:18;7.23;;;5.37;;
19111;SDS011;9688;51.906;8.376;2024-01-15T08:37:04;10.13;;;5.40;;
19111;SDS011;9688;51.906;8.376;2024-01-15T08:39:49;13.50;;;5.70;;
19111;SDS011;9688;51.906;8.376;2024-01-15T08:43:00;7.13;;;5.00;;
19111;SDS011;9688;51.906;8.376;2024-01-15T08:45:47;9.50;;;5.63;;
19111;SDS011;9688;51.906;8.376;2024-01-15T08:48:33;12.60;;;6.27;;
19111;SDS011;9688;51.906;8.376;2024-01-15T08:51:19;9.87;;;5.40;;
19111;SDS011;9688;51.906;8.376;2024-01-15T08:54:04;11.70;;;5.80;;
19111;SDS011;9688;51.906;8.376;2024-01-15T08:56:52;13.77;;;6.53;;
19111;SDS011;9688;51.906;8.376;2024-01-15T08:59:37;14.33;;;6.67;;
19111;SDS011;9688;51.906;8.376;2024-01-15T09:02:26;11.27;;;5.70;;
19111;SDS011;9688;51.906;8.376;2024-01-15T09:05:13;12.47;;;6.30;;
19111;SDS011;9688;51.906;8.376;2024-01-15T09:07:58;9.77;;;5.67;;
19111;SDS011;9688;51.906;8.376;2024-01-15T09:10:44;10.60;;;6.10;;
19111;SDS011;9688;51.906;8.376;2024-01-15T09:13:30;13.53;;;6.10;;
19111;SDS011;9688;51.906;8.376;2024-01-15T09:16:16;10.90;;;6.70;;
19111;SDS011;9688;51.906;8.376;2024-01-15T09:19:03;10.67;;;6.33;;
19111;SDS011;9688;51.906;8.376;2024-01-15T09:21:49;10.67;;;5.87;;
19111;SDS011;9688;51.906;8.376;2024-01-15T09:24:35;12.00;;;5.80;;
19111;SDS011;9688;51.906;8.376;2024-01-15T09:27:21;12.23;;;5.80;;
19111;SDS011;9688;51.906;8.376;2024-01-15T09:30:10;11.50;;;5.77;;
19111;SDS011;9688;51.906;8.376;2024-01-15T09:32:56;10.27;;;5.40;;
19111;SDS011;9688;51.906;8.376;2024-01-15T09:35:44;7.40;;;4.80;;
19111;SDS011;9688;51.906;8.376;2024-01-15T09:38:29;9.97;;;5.43;;
19111;SDS011;9688;51.906;8.376;2024-01-15T09:41:15;8.90;;;5.00;;
19111;SDS011;9688;51.906;8.376;2024-01-15T09:44:04;8.77;;;4.77;;
19111;SDS011;9688;51.906;8.376;2024-01-15T09:46:51;11.40;;;4.93;;
19111;SDS011;9688;51.906;8.376;2024-01-15T09:49:37;7.97;;;4.60;;
19111;SDS011;9688;51.906;8.376;2024-01-15T09:52:26;8.97;;;3.93;;
19111;SDS011;9688;51.906;8.376;2024-01-15T09:55:12;4.97;;;4.03;;
19111;SDS011;9688;51.906;8.376;2024-01-15T09:57:59;10.30;;;4.10;;
19111;SDS011;9688;51.906;8.376;2024-01-15T10:00:47;6.50;;;3.43;;
19111;SDS011;9688;51.906;8.376;2024-01-15T10:03:34;3.60;;;3.10;;
19111;SDS011;9688;51.906;8.376;2024-01-15T10:06:21;4.57;;;3.57;;
19111;SDS011;9688;51.906;8.376;2024-01-15T10:09:08;4.27;;;3.40;;
19111;SDS011;9688;51.906;8.376;2024-01-15T10:11:55;4.27;;;3.30;;
19111;SDS011;9688;51.906;8.376;2024-01-15T10:14:43;8.33;;;2.90;;
19111;SDS011;9688;51.906;8.376;2024-01-15T10:17:37;5.07;;;3.07;;
19111;SDS011;9688;51.906;8.376;2024-01-15T10:20:23;7.50;;;2.93;;
19111;SDS011;9688;51.906;8.376;2024-01-15T10:23:09;4.93;;;3.10;;
19111;SDS011;9688;51.906;8.376;2024-01-15T10:25:57;5.33;;;3.50;;
19111;SDS011;9688;51.906;8.376;2024-01-15T10:28:43;5.83;;;3.10;;
19111;SDS011;9688;51.906;8.376;2024-01-15T10:31:29;4.77;;;2.80;;
19111;SDS011;9688;51.906;8.376;2024-01-15T10:34:16;5.80;;;3.30;;
19111;SDS011;9688;51.906;8.376;2024-01-15T10:37:04;7.27;;;2.87;;
19111;SDS011;9688;51.906;8.376;2024-01-15T10:39:50;10.00;;;3.13;;
19111;SDS011;9688;51.906;8.376;2024-01-15T10:42:38;5.93;;;3.30;;
19111;SDS011;9688;51.906;8.376;2024-01-15T10:45:27;3.63;;;3.07;;
19111;SDS011;9688;51.906;8.376;2024-01-15T10:48:13;6.30;;;3.10;;
19111;SDS011;9688;51.906;8.376;2024-01-15T10:50:58;4.37;;;3.13;;
19111;SDS011;9688;51.906;8.376;2024-01-15T10:53:45;6.00;;;3.20;;
19111;SDS011;9688;51.906;8.376;2024-01-15T10:56:37;9.83;;;3.33;;
19111;SDS011;9688;51.906;8.376;2024-01-15T10:59:24;6.60;;;3.43;;
19111;SDS011;9688;51.906;8.376;2024-01-15T11:02:11;5.47;;;3.13;;
19111;SDS011;9688;51.906;8.376;2024-01-15T11:04:58;7.00;;;3.30;;
19111;SDS011;9688;51.906;8.376;2024-01-15T11:07:45;6.03;;;3.40;;
19111;SDS011;9688;51.906;8.376;2024-01-15T11:10:40;5.90;;;3.10;;
19111;SDS011;9688;51.906;8.376;2024-01-15T11:13:40;7.17;;;3.33;;
19111;SDS011;9688;51.906;8.376;2024-01-15T11:16:37;4.27;;;2.90;;
19111;SDS011;9688;51.906;8.376;2024-01-15T11:19:42;7.77;;;3.13;;
19111;SDS011;9688;51.906;8.376;2024-01-15T11:22:47;4.00;;;2.67;;
19111;SDS011;9688;51.906;8.376;2024-01-15T11:25:34;5.13;;;3.00;;
19111;SDS011;9688;51.906;8.376;2024-01-15T11:34:50;4.00;;;2.73;;
19111;SDS011;9688;51.906;8.376;2024-01-15T11:40:49;4.60;;;2.80;;
19111;SDS011;9688;51.906;8.376;2024-01-15T11:43:35;10.13;;;3.00;;
19111;SDS011;9688;51.906;8.376;2024-01-15T11:46:21;3.53;;;2.80;;
19111;SDS011;9688;51.906;8.376;2024-01-15T11:49:09;5.70;;;3.13;;
19111;SDS011;9688;51.906;8.376;2024-01-15T11:52:06;8.33;;;3.00;;
19111;SDS011;9688;51.906;8.376;2024-01-15T11:54:53;4.13;;;2.50;;
19111;SDS011;9688;51.906;8.376;2024-01-15T11:57:50;3.97;;;2.97;;
19111;SDS011;9688;51.906;8.376;2024-01-15T12:00:39;5.67;;;2.60;;
19111;SDS011;9688;51.906;8.376;2024-01-15T12:03:26;5.77;;;3.27;;
19111;SDS011;9688;51.906;8.376;2024-01-15T12:06:13;3.47;;;2.37;;
19111;SDS011;9688;51.906;8.376;2024-01-15T12:09:05;4.63;;;2.30;;
19111;SDS011;9688;51.906;8.376;2024-01-15T12:11:53;6.30;;;2.30;;
19111;SDS011;9688;51.906;8.376;2024-01-15T12:14:51;4.17;;;1.90;;
19111;SDS011;9688;51.906;8.376;2024-01-15T12:17:39;3.60;;;2.27;;
19111;SDS011;9688;51.906;8.376;2024-01-15T12:20:25;6.37;;;2.97;;
19111;SDS011;9688;51.906;8.376;2024-01-15T12:23:13;4.03;;;2.40;;
19111;SDS011;9688;51.906;8.376;2024-01-15T12:25:59;8.30;;;2.10;;
19111;SDS011;9688;51.906;8.376;2024-01-15T12:28:46;3.47;;;2.57;;
19111;SDS011;9688;51.906;8.376;2024-01-15T12:31:34;5.63;;;2.57;;
19111;SDS011;9688;51.906;8.376;2024-01-15T12:34:22;4.93;;;2.13;;
19111;SDS011;9688;51.906;8.376;2024-01-15T12:37:07;4.10;;;2.43;;
19111;SDS011;9688;51.906;8.376;2024-01-15T12:39:54;2.83;;;2.03;;
19111;SDS011;9688;51.906;8.376;2024-01-15T12:42:40;7.73;;;2.00;;
19111;SDS011;9688;51.906;8.376;2024-01-15T12:45:26;5.60;;;2.03;;
19111;SDS011;9688;51.906;8.376;2024-01-15T12:48:12;3.97;;;1.93;;
19111;SDS011;9688;51.906;8.376;2024-01-15T12:51:01;6.10;;;2.20;;
19111;SDS011;9688;51.906;8.376;2024-01-15T12:53:50;6.30;;;2.40;;
19111;SDS011;9688;51.906;8.376;2024-01-15T12:56:37;4.13;;;2.00;;
19111;SDS011;9688;51.906;8.376;2024-01-15T12:59:24;2.17;;;1.97;;
19111;SDS011;9688;51.906;8.376;2024-01-15T13:02:11;8.03;;;2.00;;
19111;SDS011;9688;51.906;8.376;2024-01-15T13:04:58;3.13;;;2.00;;
19111;SDS011;9688;51.906;8.376;2024-01-15T13:07:45;3.00;;;2.10;;
19111;SDS011;9688;51.906;8.376;2024-01-15T13:10:34;4.40;;;2.23;;
19111;SDS011;9688;51.906;8.376;2024-01-15T13:13:20;7.13;;;3.40;;
19111;SDS011;9688;51.906;8.376;2024-01-15T13:16:06;5.63;;;2.30;;
19111;SDS011;9688;51.906;8.376;2024-01-15T13:18:52;4.37;;;2.30;;
19111;SDS011;9688;51.906;8.376;2024-01-15T13:21:38;5.83;;;2.27;;
19111;SDS011;9688;51.906;8.376;2024-01-15T13:24:24;10.93;;;2.63;;
19111;SDS011;9688;51.906;8.376;2024-01-15T13:27:09;3.67;;;2.30;;
19111;SDS011;9688;51.906;8.376;2024-01-15T13:29:57;5.93;;;2.33;;
19111;SDS011;9688;51.906;8.376;2024-01-15T13:32:44;4.03;;;1.90;;
19111;SDS011;9688;51.906;8.376;2024-01-15T13:39:07;7.30;;;2.13;;
19111;SDS011;9688;51.906;8.376;2024-01-15T13:41:54;4.23;;;2.50;;
19111;SDS011;9688;51.906;8.376;2024-01-15T13:44:39;4.47;;;2.40;;
19111;SDS011;9688;51.906;8.376;2024-01-15T13:47:26;8.70;;;2.60;;
19111;SDS011;9688;51.906;8.376;2024-01-15T13:50:12;9.07;;;2.73;;
19111;SDS011;9688;51.906;8.376;2024-01-15T13:52:58;5.73;;;2.17;;
19111;SDS011;9688;51.906;8.376;2024-01-15T13:55:43;7.47;;;2.40;;
19111;SDS011;9688;51.906;8.376;2024-01-15T13:58:29;4.80;;;2.93;;
19111;SDS011;9688;51.906;8.376;2024-01-15T14:01:15;5.97;;;2.93;;
19111;SDS011;9688;51.906;8.376;2024-01-15T14:04:03;2.50;;;2.30;;
19111;SDS011;9688;51.906;8.376;2024-01-15T14:06:49;5.17;;;2.77;;
19111;SDS011;9688;51.906;8.376;2024-01-15T14:09:34;4.93;;;2.37;;
19111;SDS011;9688;51.906;8.376;2024-01-15T14:12:21;6.13;;;2.63;;
19111;SDS011;9688;51.906;8.376;2024-01-15T14:15:07;5.43;;;2.07;;
19111;SDS011;9688;51.906;8.376;2024-01-15T14:17:53;3.07;;;1.90;;
19111;SDS011;9688;51.906;8.376;2024-01-15T14:20:40;4.27;;;2.30;;
19111;SDS011;9688;51.906;8.376;2024-01-15T14:23:28;7.00;;;2.40;;
19111;SDS011;9688;51.906;8.376;2024-01-15T14:26:14;5.40;;;2.47;;
19111;SDS011;9688;51.906;8.376;2024-01-15T14:29:00;3.67;;;2.33;;
19111;SDS011;9688;51.906;8.376;2024-01-15T14:31:46;4.67;;;2.60;;
19111;SDS011;9688;51.906;8.376;2024-01-15T14:34:31;3.80;;;2.17;;
19111;SDS011;9688;51.906;8.376;2024-01-15T14:37:18;4.93;;;2.40;;
19111;SDS011;9688;51.906;8.376;2024-01-15T14:40:05;7.30;;;2.30;;
19111;SDS011;9688;51.906;8.376;2024-01-15T14:42:54;3.13;;;2.33;;
19111;SDS011;9688;51.906;8.376;2024-01-15T14:45:40;6.13;;;2.37;;
19111;SDS011;9688;51.906;8.376;2024-01-15T14:48:26;5.97;;;2.73;;
19111;SDS011;9688;51.906;8.376;2024-01-15T14:51:12;7.50;;;3.20;;
19111;SDS011;9688;51.906;8.376;2024-01-15T14:53:59;4.20;;;2.20;;
19111;SDS011;9688;51.906;8.376;2024-01-15T14:56:44;6.40;;;2.60;;
19111;SDS011;9688;51.906;8.376;2024-01-15T14:59:30;5.17;;;2.10;;
19111;SDS011;9688;51.906;8.376;2024-01-15T15:02:16;2.43;;;1.90;;
19111;SDS011;9688;51.906;8.376;2024-01-15T15:05:01;7.80;;;2.10;;
19111;SDS011;9688;51.906;8.376;2024-01-15T15:07:47;3.10;;;1.77;;
19111;SDS011;9688;51.906;8.376;2024-01-15T15:10:35;3.67;;;2.00;;
19111;SDS011;9688;51.906;8.376;2024-01-15T15:13:21;1.67;;;1.43;;
19111;SDS011;9688;51.906;8.376;2024-01-15T15:16:07;3.77;;;1.57;;
19111;SDS011;9688;51.906;8.376;2024-01-15T15:18:53;6.40;;;1.40;;
19111;SDS011;9688;51.906;8.376;2024-01-15T15:21:39;4.43;;;1.70;;
19111;SDS011;9688;51.906;8.376;2024-01-15T15:24:24;2.63;;;1.27;;
19111;SDS011;9688;51.906;8.376;2024-01-15T15:27:12;2.17;;;1.20;;
19111;SDS011;9688;51.906;8.376;2024-01-15T15:29:58;1.50;;;1.00;;
19111;SDS011;9688;51.906;8.376;2024-01-15T15:32:43;2.67;;;1.40;;
19111;SDS011;9688;51.906;8.376;2024-01-15T15:35:29;4.43;;;1.47;;
19111;SDS011;9688;51.906;8.376;2024-01-15T15:38:14;4.93;;;1.40;;
19111;SDS011;9688;51.906;8.376;2024-01-15T15:41:00;5.47;;;1.47;;
19111;SDS011;9688;51.906;8.376;2024-01-15T15:43:47;8.80;;;1.57;;
19111;SDS011;9688;51.906;8.376;2024-01-15T15:46:33;0.97;;;0.97;;
19111;SDS011;9688;51.906;8.376;2024-01-15T15:49:19;3.33;;;1.40;;
19111;SDS011;9688;51.906;8.376;2024-01-15T15:52:04;3.13;;;1.43;;
19111;SDS011;9688;51.906;8.376;2024-01-15T15:54:56;1.50;;;1.40;;
19111;SDS011;9688;51.906;8.376;2024-01-15T15:57:41;4.90;;;1.37;;
19111;SDS011;9688;51.906;8.376;2024-01-15T16:00:28;4.00;;;1.67;;
19111;SDS011;9688;51.906;8.376;2024-01-15T16:03:14;4.97;;;1.90;;
19111;SDS011;9688;51.906;8.376;2024-01-15T16:06:00;2.63;;;1.63;;
19111;SDS011;9688;51.906;8.376;2024-01-15T16:08:48;3.17;;;2.13;;
19111;SDS011;9688;51.906;8.376;2024-01-15T16:11:33;3.60;;;2.40;;
19111;SDS011;9688;51.906;8.376;2024-01-15T16:14:19;2.00;;;1.80;;
19111;SDS011;9688;51.906;8.376;2024-01-15T16:17:06;3.03;;;1.83;;
19111;SDS011;9688;51.906;8.376;2024-01-15T16:19:52;2.00;;;1.80;;
19111;SDS011;9688;51.906;8.376;2024-01-15T16:22:38;8.27;;;2.07;;
19111;SDS011;9688;51.906;8.376;2024-01-15T16:25:23;6.50;;;1.90;;
19111;SDS011;9688;51.906;8.376;2024-01-15T16:28:09;4.07;;;2.00;;
19111;SDS011;9688;51.906;8.376;2024-01-15T16:30:55;6.23;;;2.10;;
19111;SDS011;9688;51.906;8.376;2024-01-15T16:33:42;5.37;;;1.73;;
19111;SDS011;9688;51.906;8.376;2024-01-15T16:36:28;3.63;;;1.90;;
19111;SDS011;9688;51.906;8.376;2024-01-15T16:39:14;2.70;;;2.30;;
19111;SDS011;9688;51.906;8.376;2024-01-15T16:41:59;3.60;;;1.90;;
19111;SDS011;9688;51.906;8.376;2024-01-15T16:44:46;4.50;;;1.93;;
19111;SDS011;9688;51.906;8.376;2024-01-15T16:47:34;2.83;;;1.90;;
19111;SDS011;9688;51.906;8.376;2024-01-15T16:50:21;5.10;;;2.30;;
19111;SDS011;9688;51.906;8.376;2024-01-15T16:53:07;3.77;;;2.33;;
19111;SDS011;9688;51.906;8.376;2024-01-15T16:55:52;5.47;;;2.13;;
19111;SDS011;9688;51.906;8.376;2024-01-15T16:58:38;8.67;;;4.10;;
19111;SDS011;9688;51.906;8.376;2024-01-15T17:01:23;4.80;;;2.33;;
19111;SDS011;9688;51.906;8.376;2024-01-15T17:04:09;6.40;;;2.60;;